Time;durP1;ratioP1;P1;durP2;ratioP2;P2;SDS_P1;SDS_P2;PMS_P1;PMS_P2;Temp;Humidity;BMP_temperature;BMP_pressure;BME280_temperature;BME280_humidity;BME280_pressure;Samples;Min_cycle;Max_cycle;Signal;HPM_P1;HPM_P2
2021/12/22 00:00:23;;;;;;;21.80;11.30;;;-2.00;99.90;;;;;;4878431;29;20376;-78
2021/12/22 00:02:50;;;;;;;19.53;11.50;;;-2.00;99.90;;;;;;4852752;29;20044;-78
2021/12/22 00:05:27;;;;;;;21.67;10.97;;;-2.00;99.90;;;;;;4885902;29;20040;-78
2021/12/22 00:07:54;;;;;;;20.47;10.57;;;-2.10;99.90;;;;;;4876741;29;20047;-78
2021/12/22 00:10:21;;;;;;;19.27;10.23;;;-2.00;99.90;;;;;;4879925;29;20355;-78
2021/12/22 00:12:49;;;;;;;20.27;9.73;;;-2.10;99.90;;;;;;4873264;29;20055;-78
2021/12/22 00:15:16;;;;;;;17.93;9.63;;;-2.10;99.90;;;;;;4904565;29;20036;-78
2021/12/22 00:17:44;;;;;;;21.50;10.30;;;-2.10;99.90;;;;;;4886422;29;20033;-77
2021/12/22 00:20:12;;;;;;;18.67;10.13;;;-2.10;99.90;;;;;;4885862;29;20070;-77
2021/12/22 00:22:39;;;;;;;20.67;10.20;;;-2.20;99.90;;;;;;4884408;29;20051;-78
2021/12/22 00:25:06;;;;;;;18.10;9.80;;;-2.20;99.90;;;;;;4874040;29;20041;-78
2021/12/22 00:27:32;;;;;;;21.60;10.43;;;-2.20;99.90;;;;;;4870966;29;20040;-78
2021/12/22 00:29:59;;;;;;;21.27;11.40;;;-2.20;99.90;;;;;;4889343;29;20515;-77
2021/12/22 00:32:29;;;;;;;20.37;10.13;;;-2.20;99.90;;;;;;4878442;29;20040;-79
2021/12/22 00:34:56;;;;;;;18.60;10.37;;;-2.20;99.90;;;;;;4889752;29;20040;-78
2021/12/22 00:37:30;;;;;;;17.40;10.03;;;-2.30;99.90;;;;;;4852061;29;20377;-78
2021/12/22 00:39:58;;;;;;;21.53;9.97;;;-2.30;99.90;;;;;;4882800;29;20056;-78
2021/12/22 00:42:25;;;;;;;18.93;10.10;;;-2.30;99.90;;;;;;4878193;29;20051;-78
2021/12/22 00:44:54;;;;;;;17.70;8.70;;;-2.30;99.90;;;;;;4877264;29;20511;-78
2021/12/22 00:47:23;;;;;;;18.57;10.67;;;-2.30;99.90;;;;;;4875461;29;20052;-78
2021/12/22 00:49:49;;;;;;;16.20;9.50;;;-2.30;99.90;;;;;;4889391;29;20032;-78
2021/12/22 00:52:16;;;;;;;18.77;9.23;;;-2.40;99.90;;;;;;4872170;29;20586;-78
2021/12/22 00:54:43;;;;;;;18.37;9.50;;;-2.40;99.90;;;;;;4863921;29;20055;-78
2021/12/22 00:57:10;;;;;;;17.97;9.70;;;-2.40;99.90;;;;;;4880298;29;20035;-78
2021/12/22 00:59:38;;;;;;;21.47;11.07;;;-2.40;99.90;;;;;;4876868;29;20052;-78
2021/12/22 01:02:07;;;;;;;23.73;10.67;;;-2.40;99.90;;;;;;4876810;29;20512;-78
2021/12/22 01:04:36;;;;;;;20.93;11.40;;;-2.40;99.90;;;;;;4845333;29;20056;-78
2021/12/22 01:07:03;;;;;;;22.57;11.43;;;-2.40;99.90;;;;;;4892949;29;20037;-79
2021/12/22 01:09:30;;;;;;;22.20;10.73;;;-2.40;99.90;;;;;;4878312;29;20057;-78
2021/12/22 01:11:57;;;;;;;18.93;10.37;;;-2.40;99.90;;;;;;4881094;29;20056;-78
2021/12/22 01:14:23;;;;;;;21.00;10.83;;;-2.40;99.90;;;;;;4863789;29;20089;-78
2021/12/22 01:16:53;;;;;;;21.63;10.60;;;-2.50;99.90;;;;;;4880143;29;20505;-78
2021/12/22 01:19:31;;;;;;;19.43;9.60;;;-2.30;99.90;;;;;;4863606;29;20069;-79
2021/12/22 01:22:07;;;;;;;19.23;10.10;;;-2.00;99.90;;;;;;4874265;29;20057;-79
2021/12/22 01:24:34;;;;;;;19.40;10.37;;;-1.80;99.90;;;;;;4878360;29;20093;-78
2021/12/22 01:27:07;;;;;;;22.63;10.70;;;-1.80;99.90;;;;;;4878869;29;20520;-79
2021/12/22 01:29:37;;;;;;;21.23;11.43;;;-1.90;99.90;;;;;;4877162;29;20500;-79
2021/12/22 01:32:08;;;;;;;23.70;12.43;;;-2.00;99.90;;;;;;4887788;29;20041;-79
2021/12/22 01:34:34;;;;;;;24.00;13.37;;;-2.10;99.90;;;;;;4876553;29;20047;-78
2021/12/22 01:37:01;;;;;;;23.30;12.63;;;-2.30;99.90;;;;;;4869858;29;20052;-78
2021/12/22 01:39:28;;;;;;;29.33;14.63;;;-2.30;99.90;;;;;;4880656;29;20047;-77
2021/12/22 01:41:55;;;;;;;25.53;13.33;;;-2.40;99.90;;;;;;4876706;29;20059;-78
2021/12/22 01:50:38;;;;;;;24.47;13.17;;;-2.50;99.90;;;;;;4884432;29;20124;-78
2021/12/22 01:53:26;;;;;;;25.40;13.57;;;-2.50;99.90;;;;;;4882950;29;20032;-78
2021/12/22 01:56:02;;;;;;;33.17;17.93;;;-2.50;99.90;;;;;;4884636;29;20523;-78
2021/12/22 01:58:36;;;;;;;29.70;14.50;;;-2.50;99.90;;;;;;4884932;29;20036;-77
2021/12/22 02:01:05;;;;;;;30.93;13.83;;;-2.50;99.90;;;;;;4868103;29;20044;-78
2021/12/22 02:03:32;;;;;;;30.37;13.67;;;-2.60;99.90;;;;;;4883662;29;20472;-77
2021/12/22 02:05:59;;;;;;;27.77;14.57;;;-2.60;99.90;;;;;;4883441;29;20055;-78
2021/12/22 02:08:28;;;;;;;26.73;12.83;;;-2.60;99.90;;;;;;4899965;29;20040;-78
2021/12/22 02:10:55;;;;;;;26.17;12.27;;;-2.60;99.90;;;;;;4883593;29;20048;-78
2021/12/22 02:13:28;;;;;;;28.83;14.80;;;-2.60;99.90;;;;;;4868679;29;20055;-78
2021/12/22 02:15:54;;;;;;;38.60;17.67;;;-2.70;99.90;;;;;;4883576;29;20044;-78
2021/12/22 02:18:22;;;;;;;39.10;18.70;;;-2.70;99.90;;;;;;4869054;29;20048;-78
2021/12/22 02:20:50;;;;;;;36.73;16.87;;;-2.70;99.90;;;;;;4917357;29;20044;-78
2021/12/22 02:23:17;;;;;;;33.43;16.40;;;-2.70;99.90;;;;;;4899046;29;20032;-78
2021/12/22 02:25:52;;;;;;;39.43;18.23;;;-2.70;99.90;;;;;;4869246;29;20049;-78
2021/12/22 02:28:26;;;;;;;42.53;20.00;;;-2.70;99.90;;;;;;4899998;29;20032;-77
2021/12/22 02:30:54;;;;;;;45.80;18.83;;;-2.70;99.90;;;;;;4884975;29;20040;-77
2021/12/22 02:33:23;;;;;;;38.77;16.30;;;-2.70;99.90;;;;;;4855049;29;20040;-77
2021/12/22 02:38:33;;;;;;;35.70;17.63;;;-2.70;99.90;;;;;;4880675;29;20047;-77
2021/12/22 02:41:00;;;;;;;38.37;17.23;;;-2.70;99.90;;;;;;4879548;29;20503;-77
2021/12/22 02:43:31;;;;;;;35.47;15.80;;;-2.70;99.90;;;;;;4899332;29;20024;-78
2021/12/22 02:45:59;;;;;;;38.03;16.83;;;-2.70;99.90;;;;;;4899379;29;20040;-77
2021/12/22 02:48:32;;;;;;;34.43;15.57;;;-2.80;99.90;;;;;;4916825;29;20048;-77
2021/12/22 02:51:01;;;;;;;;;;;-2.90;99.90;;;;;;4893827;29;20036;-80
2021/12/22 02:54:02;;;;;;;30.93;14.77;;;-2.80;99.90;;;;;;4894055;29;19919;-78
2021/12/22 02:56:38;;;;;;;33.30;14.23;;;-2.80;99.90;;;;;;4878873;29;20044;-78
2021/12/22 03:04:55;;;;;;;29.30;14.93;;;-2.90;99.90;;;;;;4865995;29;20484;-78
2021/12/22 03:07:27;;;;;;;34.13;15.87;;;-2.90;99.90;;;;;;4880385;29;20044;-79
2021/12/22 03:10:14;;;;;;;31.83;15.63;;;-2.90;99.90;;;;;;4912683;29;20047;-79
2021/12/22 03:12:41;;;;;;;36.83;15.00;;;-2.90;99.90;;;;;;4875249;29;20507;-79
2021/12/22 03:15:09;;;;;;;32.43;15.17;;;-2.90;99.90;;;;;;4876793;29;20029;-78
2021/12/22 03:17:40;;;;;;;34.43;15.03;;;-3.00;99.90;;;;;;4869017;29;20040;-79
2021/12/22 03:20:09;;;;;;;27.60;13.47;;;-3.00;99.90;;;;;;4877722;29;20764;-79
2021/12/22 03:22:36;;;;;;;34.27;16.43;;;-3.00;99.90;;;;;;4859613;29;20052;-80
2021/12/22 03:25:13;;;;;;;29.30;14.53;;;-3.00;99.90;;;;;;4908957;29;20040;-79
2021/12/22 03:27:44;;;;;;;28.00;12.87;;;-3.00;99.90;;;;;;4890810;29;20907;-79
2021/12/22 03:30:13;;;;;;;29.40;13.93;;;-3.00;99.90;;;;;;4887741;29;20025;-80
2021/12/22 03:32:42;;;;;;;27.50;11.90;;;-3.00;99.90;;;;;;4857365;29;20040;-79
2021/12/22 03:35:14;;;;;;;25.13;12.13;;;-3.00;99.90;;;;;;4878964;29;20067;-80
2021/12/22 03:37:42;;;;;;;24.45;11.57;;;-3.00;99.90;;;;;;4878979;29;20377;-79
2021/12/22 03:40:09;;;;;;;21.97;12.13;;;-3.10;99.90;;;;;;4858300;29;20055;-80
2021/12/22 03:42:36;;;;;;;30.60;14.40;;;-3.00;99.90;;;;;;4875081;29;20036;-80
2021/12/22 03:45:04;;;;;;;29.03;13.43;;;-3.10;99.90;;;;;;4889672;29;20051;-79
2021/12/22 03:47:30;;;;;;;22.50;11.40;;;-3.10;99.90;;;;;;4867685;29;20469;-79
2021/12/22 03:50:00;;;;;;;28.20;12.57;;;-3.10;99.90;;;;;;4891343;29;20039;-80
2021/12/22 03:52:26;;;;;;;25.33;12.07;;;-3.10;99.90;;;;;;4850268;29;20043;-79
2021/12/22 03:54:58;;;;;;;25.60;12.57;;;-3.10;99.90;;;;;;4867584;29;20044;-79
2021/12/22 03:57:26;;;;;;;28.43;13.70;;;-3.10;99.90;;;;;;4885894;29;20845;-80
2021/12/22 03:59:55;;;;;;;27.03;13.10;;;-3.10;99.90;;;;;;4897375;29;20052;-79
2021/12/22 04:02:22;;;;;;;26.47;13.60;;;-3.10;99.90;;;;;;4889836;29;20059;-79
2021/12/22 04:04:50;;;;;;;32.63;15.23;;;-3.10;99.90;;;;;;4879449;29;20055;-79
2021/12/22 04:07:18;;;;;;;27.03;13.10;;;-3.10;99.90;;;;;;4888583;29;20389;-79
2021/12/22 04:09:45;;;;;;;34.53;15.43;;;-3.10;99.90;;;;;;4865812;29;20033;-79
2021/12/22 04:12:12;;;;;;;29.90;14.70;;;-3.10;99.90;;;;;;4876170;29;20036;-79
2021/12/22 04:14:39;;;;;;;29.20;13.80;;;-3.10;99.90;;;;;;4873710;29;20500;-79
2021/12/22 04:17:06;;;;;;;27.57;13.67;;;-3.10;99.90;;;;;;4870371;29;20048;-79
2021/12/22 04:19:32;;;;;;;28.90;14.23;;;-3.10;99.90;;;;;;4888033;29;20492;-79
2021/12/22 04:21:59;;;;;;;26.83;13.87;;;-3.10;99.90;;;;;;4873349;29;20053;-79
2021/12/22 04:24:25;;;;;;;26.23;12.60;;;-3.10;99.90;;;;;;4883827;29;20049;-79
2021/12/22 04:26:52;;;;;;;28.77;13.50;;;-3.20;99.90;;;;;;4872673;29;20036;-79
2021/12/22 04:29:19;;;;;;;28.40;14.47;;;-3.20;99.90;;;;;;4869960;29;20041;-79
2021/12/22 04:31:46;;;;;;;31.53;15.10;;;-3.20;99.90;;;;;;4896343;29;20036;-80
2021/12/22 04:34:13;;;;;;;25.70;13.90;;;-3.20;99.90;;;;;;4897856;29;20507;-79
2021/12/22 04:36:41;;;;;;;30.47;14.77;;;-3.20;99.90;;;;;;4911726;29;20044;-79
2021/12/22 04:39:09;;;;;;;29.67;14.03;;;-3.20;99.90;;;;;;4890547;29;20059;-79
2021/12/22 04:41:36;;;;;;;29.67;13.90;;;-3.20;99.90;;;;;;4890055;29;20051;-79
2021/12/22 04:44:03;;;;;;;33.60;16.93;;;-3.20;99.90;;;;;;4880319;29;20048;-79
2021/12/22 04:46:30;;;;;;;37.70;17.87;;;-3.20;99.90;;;;;;4877549;29;20423;-79
2021/12/22 04:48:56;;;;;;;36.10;17.93;;;-3.30;99.90;;;;;;4848392;29;20047;-79
2021/12/22 04:51:27;;;;;;;37.33;17.00;;;-3.30;99.90;;;;;;4878756;29;20377;-79
2021/12/22 04:54:04;;;;;;;34.20;17.50;;;-3.20;99.90;;;;;;4864741;29;20036;-79
2021/12/22 04:56:31;;;;;;;48.17;19.40;;;-3.30;99.90;;;;;;4866365;29;20517;-79
2021/12/22 04:58:59;;;;;;;39.33;19.10;;;-3.30;99.90;;;;;;4850231;29;20044;-78
2021/12/22 05:01:26;;;;;;;38.83;17.97;;;-3.30;99.90;;;;;;4849868;29;20033;-78
2021/12/22 05:03:56;;;;;;;44.10;18.90;;;-3.30;99.90;;;;;;4847620;29;20508;-78
2021/12/22 05:06:24;;;;;;;46.70;21.67;;;-3.30;99.90;;;;;;4848041;29;20049;-77
2021/12/22 05:08:51;;;;;;;42.13;19.30;;;-3.30;99.90;;;;;;4879055;29;20047;-77
2021/12/22 05:11:18;;;;;;;50.20;21.90;;;-3.40;99.90;;;;;;4878956;29;20041;-79
2021/12/22 05:13:48;;;;;;;42.50;18.77;;;-3.30;99.90;;;;;;4847749;29;20028;-79
2021/12/22 05:16:19;;;;;;;42.10;20.33;;;-3.30;99.90;;;;;;4879403;29;20040;-78
2021/12/22 05:21:35;;;;;;;50.50;21.60;;;-3.40;99.90;;;;;;4883568;29;20040;-85
2021/12/22 05:24:02;;;;;;;47.87;21.67;;;-3.40;99.90;;;;;;4855550;29;20393;-86
2021/12/22 05:26:29;;;;;;;43.73;19.90;;;-3.40;99.90;;;;;;4873918;29;20037;-86
2021/12/22 05:28:56;;;;;;;41.77;18.70;;;-3.40;99.90;;;;;;4855392;29;20399;-86
2021/12/22 05:31:23;;;;;;;42.57;17.57;;;-3.40;99.90;;;;;;4870834;29;20040;-87
2021/12/22 05:33:50;;;;;;;45.93;19.40;;;-3.40;99.90;;;;;;4858822;29;20037;-87
2021/12/22 05:36:17;;;;;;;41.23;18.73;;;-3.50;99.90;;;;;;4854600;29;20043;-86
2021/12/22 05:38:44;;;;;;;54.70;23.30;;;-3.50;99.90;;;;;;4855197;29;20477;-86
2021/12/22 05:41:10;;;;;;;45.23;21.07;;;-3.40;99.90;;;;;;4859042;29;20043;-86
2021/12/22 05:43:37;;;;;;;51.03;21.60;;;-3.50;99.90;;;;;;4855822;29;20043;-87
2021/12/22 05:46:04;;;;;;;59.27;26.07;;;-3.50;99.90;;;;;;4870438;29;20048;-86
2021/12/22 05:48:31;;;;;;;53.20;22.13;;;-3.50;99.90;;;;;;4855488;29;20056;-85
2021/12/22 05:50:58;;;;;;;51.47;22.90;;;-3.50;99.90;;;;;;4855342;29;20040;-86
2021/12/22 05:53:25;;;;;;;46.63;20.73;;;-3.50;99.90;;;;;;4858192;29;20033;-86
2021/12/22 05:55:53;;;;;;;46.83;20.83;;;-3.50;99.90;;;;;;4840183;29;20036;-87
2021/12/22 05:58:20;;;;;;;41.47;19.73;;;-3.50;99.90;;;;;;4840658;29;20047;-87
2021/12/22 06:00:47;;;;;;;48.87;21.43;;;-3.50;99.90;;;;;;4869941;29;20041;-86
2021/12/22 06:03:14;;;;;;;50.57;22.53;;;-3.50;99.90;;;;;;4870908;29;20480;-87
2021/12/22 06:05:42;;;;;;;49.07;21.50;;;-3.50;99.90;;;;;;4855108;29;20073;-87
2021/12/22 06:08:09;;;;;;;45.37;19.53;;;-3.50;99.90;;;;;;4886315;29;20036;-86
2021/12/22 06:10:35;;;;;;;46.03;19.77;;;-3.50;99.90;;;;;;4854476;29;20045;-87
2021/12/22 06:13:08;;;;;;;55.37;23.07;;;-3.50;99.90;;;;;;4854615;29;20479;-85
2021/12/22 06:15:37;;;;;;;48.93;21.87;;;-3.50;99.90;;;;;;4869019;29;20044;-86
2021/12/22 06:18:05;;;;;;;53.93;23.77;;;-3.60;99.90;;;;;;4858492;29;20040;-86
2021/12/22 06:20:32;;;;;;;47.20;21.33;;;-3.60;99.90;;;;;;4855058;29;20040;-86
2021/12/22 06:22:59;;;;;;;43.67;19.60;;;-3.60;99.90;;;;;;4854519;29;20036;-87
2021/12/22 06:25:26;;;;;;;44.10;20.33;;;-3.60;99.90;;;;;;4858472;29;20052;-87
2021/12/22 06:27:55;;;;;;;44.87;18.90;;;-3.50;99.90;;;;;;4869953;29;20040;-88
2021/12/22 06:30:23;;;;;;;44.63;19.23;;;-3.60;99.90;;;;;;4851811;29;20044;-88
2021/12/22 06:32:52;;;;;;;45.80;19.60;;;-3.60;99.90;;;;;;4866633;29;20032;-80
2021/12/22 06:35:25;;;;;;;45.50;20.83;;;-3.60;99.90;;;;;;4867169;29;20496;-88
2021/12/22 06:37:52;;;;;;;46.43;19.07;;;-3.60;99.90;;;;;;4852754;29;20055;-86
2021/12/22 06:40:20;;;;;;;40.90;17.87;;;-3.60;99.90;;;;;;4852958;29;20056;-84
2021/12/22 06:42:47;;;;;;;47.07;19.20;;;-3.60;99.90;;;;;;4869089;29;20055;-80
2021/12/22 06:45:19;;;;;;;41.70;18.63;;;-3.60;99.90;;;;;;4866114;29;20028;-80
2021/12/22 06:47:46;;;;;;;42.67;18.58;;;-3.60;99.90;;;;;;4883176;29;20930;-81
2021/12/22 06:50:13;;;;;;;38.17;17.17;;;-3.60;99.90;;;;;;4827506;29;20049;-80
2021/12/22 06:52:51;;;;;;;38.17;16.93;;;-3.60;99.90;;;;;;4846999;29;20049;-83
2021/12/22 06:55:25;;;;;;;47.70;21.87;;;-3.60;99.90;;;;;;4863186;29;20492;-82
2021/12/22 06:57:52;;;;;;;40.83;17.63;;;-3.60;99.90;;;;;;4876328;29;20037;-82
2021/12/22 07:00:20;;;;;;;41.90;17.13;;;-3.60;99.90;;;;;;4858510;29;20385;-82
2021/12/22 07:02:47;;;;;;;46.07;18.57;;;-3.60;99.90;;;;;;4844130;29;20052;-82
2021/12/22 07:05:21;;;;;;;49.37;20.63;;;-3.60;99.90;;;;;;4860881;29;20530;-81
2021/12/22 07:07:48;;;;;;;38.73;17.23;;;-3.60;99.90;;;;;;4863668;29;20052;-80
2021/12/22 07:10:15;;;;;;;40.63;18.37;;;-3.60;99.90;;;;;;4854449;29;20036;-81
2021/12/22 07:12:50;;;;;;;40.77;15.97;;;-3.60;99.90;;;;;;4866160;29;20949;-79
2021/12/22 07:15:18;;;;;;;39.10;15.93;;;-3.60;99.90;;;;;;4868390;29;20041;-80
2021/12/22 07:17:54;;;;;;;43.03;18.37;;;-3.70;99.90;;;;;;4891034;29;20048;-81
2021/12/22 07:20:20;;;;;;;38.70;16.20;;;-3.60;99.90;;;;;;4844288;29;20162;-79
2021/12/22 07:22:47;;;;;;;32.80;15.00;;;-3.70;99.90;;;;;;4850106;29;20040;-79
2021/12/22 07:25:18;;;;;;;34.13;16.47;;;-3.60;99.90;;;;;;4844834;29;20048;-79
2021/12/22 07:27:45;;;;;;;33.83;16.27;;;-3.70;99.90;;;;;;4881992;29;20091;-78
2021/12/22 07:30:12;;;;;;;35.37;15.73;;;-3.70;99.90;;;;;;4855301;29;20032;-79
2021/12/22 07:32:39;;;;;;;37.83;15.83;;;-3.70;99.90;;;;;;4871299;29;20109;-78
2021/12/22 07:35:34;;;;;;;41.87;19.17;;;-3.70;99.90;;;;;;4856035;29;20036;-78
2021/12/22 07:38:21;;;;;;;42.60;19.52;;;-3.70;99.90;;;;;;4890945;29;20033;-78
2021/12/22 07:40:48;;;;;;;39.43;16.83;;;-3.70;99.90;;;;;;4884115;29;20056;-78
2021/12/22 07:43:14;;;;;;;37.53;17.53;;;-3.70;99.90;;;;;;4840058;29;20033;-78
2021/12/22 07:45:41;;;;;;;35.27;16.50;;;-3.70;99.90;;;;;;4846496;29;20045;-78
2021/12/22 07:48:08;;;;;;;38.97;16.50;;;-3.70;99.90;;;;;;4856170;29;20138;-78
2021/12/22 07:50:34;;;;;;;41.67;17.90;;;-3.60;99.90;;;;;;4875614;29;20055;-78
2021/12/22 07:53:01;;;;;;;41.10;17.43;;;-3.60;99.90;;;;;;4859974;29;20480;-78
2021/12/22 07:55:28;;;;;;;30.00;13.77;;;-3.60;99.90;;;;;;4908562;29;20047;-78
2021/12/22 07:57:56;;;;;;;38.17;14.70;;;-3.50;99.90;;;;;;4877310;29;20044;-78
2021/12/22 08:00:22;;;;;;;27.77;11.90;;;-3.60;99.90;;;;;;4882147;29;20856;-78
2021/12/22 08:02:49;;;;;;;34.03;15.33;;;-3.60;99.90;;;;;;4876535;29;20047;-79
2021/12/22 08:05:16;;;;;;;40.50;18.10;;;-3.50;99.90;;;;;;4883221;29;20048;-80
2021/12/22 08:07:42;;;;;;;36.83;16.17;;;-3.50;99.90;;;;;;4894364;29;20044;-80
2021/12/22 08:10:09;;;;;;;38.30;15.37;;;-3.40;99.90;;;;;;4864651;29;20051;-79
2021/12/22 08:12:36;;;;;;;36.80;17.03;;;-3.40;99.90;;;;;;4868466;29;20044;-79
2021/12/22 08:15:04;;;;;;;42.87;18.90;;;-3.40;99.90;;;;;;4859347;29;20059;-82
2021/12/22 08:17:32;;;;;;;47.27;18.50;;;-3.40;99.90;;;;;;4875481;29;20040;-79
2021/12/22 08:20:00;;;;;;;37.77;18.23;;;-3.30;99.90;;;;;;4890396;29;20055;-79
2021/12/22 08:22:29;;;;;;;45.33;18.07;;;-3.30;99.90;;;;;;4856836;29;20389;-80
2021/12/22 08:24:58;;;;;;;36.93;16.50;;;-3.20;99.90;;;;;;4854787;29;20048;-83
2021/12/22 08:27:26;;;;;;;32.77;14.90;;;-3.20;99.90;;;;;;4869086;29;20039;-86
2021/12/22 08:29:54;;;;;;;32.53;14.90;;;-3.20;99.90;;;;;;4889449;29;20037;-85
2021/12/22 08:32:21;;;;;;;35.67;16.20;;;-3.10;99.90;;;;;;4875066;29;20028;-84
2021/12/22 08:34:54;;;;;;;32.53;14.50;;;-3.10;99.90;;;;;;4853184;29;20040;-85
2021/12/22 08:40:11;;;;;;;30.63;14.53;;;-3.00;99.90;;;;;;4877131;29;20048;-80
2021/12/22 08:42:37;;;;;;;31.83;14.43;;;-2.90;99.90;;;;;;4884773;29;20036;-79
2021/12/22 08:45:06;;;;;;;34.93;16.50;;;-2.80;99.90;;;;;;4875079;29;20040;-79
2021/12/22 08:47:37;;;;;;;38.63;18.43;;;-2.80;99.90;;;;;;4866933;29;20040;-79
2021/12/22 08:50:07;;;;;;;37.70;16.50;;;-2.70;99.90;;;;;;4859336;29;20029;-79
2021/12/22 08:52:34;;;;;;;32.27;15.63;;;-2.70;99.90;;;;;;4845595;29;20036;-79
2021/12/22 08:55:01;;;;;;;30.70;15.63;;;-2.60;99.90;;;;;;4875001;29;20037;-79
2021/12/22 08:57:27;;;;;;;37.43;14.93;;;-2.60;99.90;;;;;;4862684;29;20539;-79
2021/12/22 08:59:54;;;;;;;33.87;15.17;;;-2.60;99.90;;;;;;4862397;29;20040;-79
2021/12/22 09:02:25;;;;;;;37.10;19.30;;;-2.50;99.90;;;;;;4871005;29;20041;-79
2021/12/22 09:04:51;;;;;;;35.03;17.07;;;-2.50;99.90;;;;;;4860787;29;20044;-79
2021/12/22 09:07:18;;;;;;;33.40;16.03;;;-2.50;99.90;;;;;;4859954;29;20037;-79
2021/12/22 09:09:45;;;;;;;38.50;18.10;;;-2.40;99.90;;;;;;4862986;29;20068;-79
2021/12/22 09:12:11;;;;;;;35.37;17.37;;;-2.30;99.90;;;;;;4852961;29;20036;-79
2021/12/22 09:14:38;;;;;;;38.97;17.23;;;-2.20;99.90;;;;;;4875044;29;20048;-78
2021/12/22 09:17:07;;;;;;;38.30;17.67;;;-2.20;99.90;;;;;;4832613;29;20056;-79
2021/12/22 09:19:34;;;;;;;34.30;17.03;;;-2.10;99.90;;;;;;4849409;29;20051;-79
2021/12/22 09:22:00;;;;;;;36.27;17.70;;;-2.10;99.90;;;;;;4877211;29;20045;-79
2021/12/22 09:24:27;;;;;;;35.23;17.30;;;-2.00;99.90;;;;;;4842743;29;20036;-79
2021/12/22 09:26:54;;;;;;;37.83;19.47;;;-1.90;99.90;;;;;;4860382;29;20043;-80
2021/12/22 09:29:21;;;;;;;35.33;16.20;;;-1.80;99.90;;;;;;4847361;29;20396;-81
2021/12/22 09:31:50;;;;;;;29.53;15.90;;;-1.70;99.90;;;;;;4865708;29;20052;-80
2021/12/22 09:34:17;;;;;;;37.63;17.93;;;-1.70;99.90;;;;;;4878125;29;20033;-79
2021/12/22 09:36:45;;;;;;;31.63;16.50;;;-1.60;99.90;;;;;;4846575;29;20055;-79
2021/12/22 09:39:14;;;;;;;42.90;18.57;;;-1.50;99.90;;;;;;4876822;29;20484;-80
2021/12/22 09:41:41;;;;;;;32.17;17.77;;;-1.50;99.90;;;;;;4844336;29;20064;-77
2021/12/22 09:44:08;;;;;;;39.37;16.87;;;-1.40;99.90;;;;;;4902612;29;20040;-81
2021/12/22 09:46:38;;;;;;;36.57;19.63;;;-1.30;99.90;;;;;;4897197;29;20033;-79
2021/12/22 09:49:20;;;;;;;30.33;16.07;;;-1.30;99.90;;;;;;4862961;29;20412;-79
2021/12/22 09:54:32;;;;;;;32.77;16.17;;;-1.10;99.90;;;;;;4875235;29;20056;-80
2021/12/22 09:56:59;;;;;;;31.73;14.97;;;-1.00;99.90;;;;;;4862460;29;20032;-80
2021/12/22 09:59:26;;;;;;;27.33;14.43;;;-0.90;99.90;;;;;;4863482;29;20033;-78
2021/12/22 10:01:53;;;;;;;26.03;14.90;;;-0.80;99.90;;;;;;4877920;29;20071;-79
2021/12/22 10:04:20;;;;;;;28.23;14.37;;;-0.70;99.90;;;;;;4881814;29;20041;-78
2021/12/22 10:06:46;;;;;;;26.07;14.37;;;-0.60;99.90;;;;;;4849758;29;20386;-78
2021/12/22 10:09:13;;;;;;;28.37;15.20;;;-0.50;99.90;;;;;;4884171;29;20397;-78
2021/12/22 10:11:44;;;;;;;25.53;14.73;;;-0.40;99.90;;;;;;4865231;29;20052;-80
2021/12/22 10:14:20;;;;;;;21.53;12.33;;;-0.20;99.90;;;;;;4869005;29;20045;-77
2021/12/22 10:16:51;;;;;;;26.13;14.07;;;0.00;99.90;;;;;;4901556;29;20040;-78
2021/12/22 10:19:19;;;;;;;27.57;14.17;;;0.10;99.90;;;;;;4871928;29;20048;-78
2021/12/22 10:21:52;;;;;;;22.03;13.20;;;0.30;99.90;;;;;;4850301;29;20040;-78
2021/12/22 10:24:21;;;;;;;20.67;13.05;;;0.30;99.90;;;;;;4866493;29;20779;-78
2021/12/22 10:27:01;;;;;;;25.93;14.83;;;0.40;99.90;;;;;;4871182;29;20056;-77
2021/12/22 10:29:33;;;;;;;24.37;13.30;;;0.50;99.90;;;;;;4902116;29;20032;-78
2021/12/22 10:32:14;;;;;;;23.97;13.37;;;0.50;99.90;;;;;;4877748;29;20043;-79
2021/12/22 10:35:03;;;;;;;25.77;13.43;;;0.60;99.90;;;;;;4868793;29;20037;-78
2021/12/22 10:37:37;;;;;;;22.90;12.20;;;0.60;99.90;;;;;;4885460;29;20040;-79
2021/12/22 10:40:33;;;;;;;22.77;12.97;;;0.60;99.90;;;;;;4896934;29;20039;-78
2021/12/22 10:43:01;;;;;;;20.73;12.40;;;0.60;99.90;;;;;;4883683;29;20062;-79
2021/12/22 10:45:31;;;;;;;20.63;12.40;;;0.60;99.90;;;;;;4880320;29;20032;-78
2021/12/22 10:50:46;;;;;;;19.50;11.47;;;0.50;99.90;;;;;;4894568;29;20053;-78
2021/12/22 10:53:14;;;;;;;17.80;11.73;;;0.60;99.90;;;;;;4890313;29;20032;-78
2021/12/22 10:55:44;;;;;;;21.37;9.80;;;0.60;99.90;;;;;;4886481;29;20044;-78
2021/12/22 10:58:28;;;;;;;22.77;12.50;;;0.60;99.90;;;;;;4892903;29;20479;-79
2021/12/22 11:01:08;;;;;;;25.40;12.87;;;0.60;99.90;;;;;;4878807;29;20040;-79
2021/12/22 11:03:52;;;;;;;25.67;12.20;;;0.60;99.90;;;;;;4879850;29;20052;-78
2021/12/22 11:06:29;;;;;;;24.93;12.47;;;0.60;99.90;;;;;;4889407;29;20484;-78
2021/12/22 11:09:10;;;;;;;21.63;12.43;;;0.50;99.90;;;;;;4879082;29;20036;-78
2021/12/22 11:11:38;;;;;;;21.97;11.27;;;0.50;99.90;;;;;;4894473;29;20032;-78
2021/12/22 11:14:16;;;;;;;23.93;13.87;;;0.60;99.90;;;;;;4891833;29;20045;-79
2021/12/22 11:16:49;;;;;;;19.63;12.40;;;0.60;99.90;;;;;;4891995;29;20401;-79
2021/12/22 11:19:16;;;;;;;17.83;11.47;;;0.60;99.90;;;;;;4909655;29;20040;-79
2021/12/22 11:22:04;;;;;;;24.97;12.53;;;0.60;99.90;;;;;;4860516;29;20036;-79
2021/12/22 11:24:34;;;;;;;20.47;11.20;;;0.70;99.90;;;;;;4888184;29;20044;-78
2021/12/22 11:27:01;;;;;;;24.27;12.27;;;0.70;99.90;;;;;;4908400;29;20051;-79
2021/12/22 11:29:28;;;;;;;21.07;11.77;;;0.80;99.90;;;;;;4892649;29;20396;-79
2021/12/22 11:31:55;;;;;;;22.57;11.80;;;0.80;99.90;;;;;;4890844;29;20032;-78
2021/12/22 11:34:22;;;;;;;20.00;11.33;;;0.80;99.90;;;;;;4875799;29;20032;-79
2021/12/22 11:36:50;;;;;;;27.70;16.83;;;0.90;99.90;;;;;;4895532;29;20046;-80
2021/12/22 11:39:18;;;;;;;23.90;13.73;;;0.90;99.90;;;;;;4886594;29;20520;-79
2021/12/22 11:41:55;;;;;;;25.57;14.33;;;0.90;99.90;;;;;;4888719;29;20504;-81
2021/12/22 11:44:29;;;;;;;23.47;13.13;;;1.00;99.90;;;;;;4872157;29;20403;-80
2021/12/22 11:47:01;;;;;;;22.00;12.90;;;0.90;99.90;;;;;;4892040;29;20387;-79
2021/12/22 11:49:29;;;;;;;21.00;13.18;;;1.00;99.90;;;;;;4869921;29;20051;-80
2021/12/22 11:51:57;;;;;;;24.07;13.57;;;0.90;99.90;;;;;;4853234;29;20055;-80
2021/12/22 11:54:28;;;;;;;21.20;12.57;;;0.90;99.90;;;;;;4859324;29;20043;-80
2021/12/22 11:56:58;;;;;;;21.77;12.97;;;0.90;99.90;;;;;;4875091;29;20036;-81
2021/12/22 11:59:39;;;;;;;21.03;12.93;;;1.00;99.90;;;;;;4848316;29;20032;-82
2021/12/22 12:02:31;;;;;;;21.90;12.93;;;1.00;99.90;;;;;;4874602;29;20071;-81
2021/12/22 12:05:28;;;;;;;23.47;13.77;;;1.00;99.90;;;;;;4904850;29;20040;-86
2021/12/22 12:07:57;;;;;;;20.03;12.53;;;0.90;99.90;;;;;;4882200;29;20048;-83
2021/12/22 12:10:43;;;;;;;21.73;12.67;;;0.90;99.90;;;;;;4872023;29;20397;-82
2021/12/22 12:13:26;;;;;;;23.93;13.67;;;0.90;99.90;;;;;;4907214;29;20028;-81
2021/12/22 12:21:56;;;;;;;28.15;15.75;;;0.90;99.90;;;;;;4884433;29;20048;-82
2021/12/22 12:24:48;;;;;;;26.23;13.03;;;0.90;99.90;;;;;;4905291;29;20045;-82
2021/12/22 12:27:52;;;;;;;19.53;12.77;;;0.90;99.90;;;;;;4889851;29;20028;-85
2021/12/22 12:30:27;;;;;;;18.17;11.03;;;0.90;99.90;;;;;;4878213;29;20051;-84
2021/12/22 12:32:56;;;;;;;18.53;11.43;;;0.90;99.90;;;;;;4887079;29;20505;-83
2021/12/22 12:35:39;;;;;;;16.63;11.60;;;0.90;99.90;;;;;;4875740;29;20472;-87
2021/12/22 12:38:42;;;;;;;20.47;11.30;;;0.90;99.90;;;;;;4870827;29;20468;-84
2021/12/22 12:41:29;;;;;;;18.40;10.87;;;0.90;99.90;;;;;;4868377;29;20500;-80
2021/12/22 12:44:01;;;;;;;23.23;14.37;;;1.00;99.90;;;;;;4884597;29;20032;-81
2021/12/22 12:46:35;;;;;;;26.25;13.48;;;0.90;99.90;;;;;;4891923;29;20361;-80
2021/12/22 12:49:04;;;;;;;17.40;12.20;;;0.90;99.90;;;;;;4886066;29;20052;-80
2021/12/22 12:51:40;;;;;;;19.00;12.13;;;0.90;99.90;;;;;;4886668;29;20044;-79
2021/12/22 12:54:28;;;;;;;19.30;11.93;;;0.80;99.90;;;;;;4873391;29;20028;-79
2021/12/22 12:56:55;;;;;;;22.70;15.23;;;0.90;99.90;;;;;;4879029;29;20864;-79
2021/12/22 12:59:39;;;;;;;21.57;13.40;;;0.80;99.90;;;;;;4890094;29;20036;-79
2021/12/22 13:02:08;;;;;;;19.03;12.07;;;0.80;99.90;;;;;;4884378;29;20047;-79
2021/12/22 13:04:43;;;;;;;20.27;13.43;;;0.80;99.90;;;;;;4880667;29;20987;-77
2021/12/22 13:07:20;;;;;;;24.93;15.10;;;0.80;99.90;;;;;;4897836;29;20048;-84
2021/12/22 13:10:12;;;;;;;20.30;14.13;;;0.80;99.90;;;;;;4906216;29;20028;-81
2021/12/22 13:17:58;;;;;;;26.33;17.47;;;0.80;99.90;;;;;;4910975;29;20048;-82
2021/12/22 13:20:31;;;;;;;20.67;13.97;;;0.80;99.90;;;;;;4904040;29;20039;-81
2021/12/22 13:23:01;;;;;;;19.37;13.00;;;0.80;99.90;;;;;;4884921;29;20028;-82